Historique des mesures à Cassis (13260), France
Quotidien Résumé Fevrier 23, 2018 Unités:  US    Métrique   Métrique/US
« Précédent (Jour)
Suivant (Jour) »
Quotidien Hebdomadaire Mensuel Annuel Période au choix
  Maximum: Minimum: Moyenne:
Température: 32 °F 39.7 °F 45.9 °F
Point de rosée: 32 °F 28.4 °F 31.6 °F
Humidité: Humidity % 49 % 55 %
Vitesse du vent: WindSpeedKMH mph 0.0 mph 2.7 mph
Rafales: WindSpeedGustKMH mph - -
Vent:- - SSW
Pression: 0 in 29.5 in -
Précipitations: 0 in    
Historical Graphs
 
 
Mesures pour : Fevrier 23, 2018
Heure Temperature Point de rosée Pression Vent Vitesse du vent Rafales Humidité Pluie (par heure) Conditions
32 °F 32 °F 0 in Calm     Humidity % 0 in SoftwareType W/m2
00:12 42.6 °F 32.7 °F 29.6 in WNW 3.2 mph 3.5 mph 68 % 0 in open2300-1.11 W/m2
01:12 41.2 °F 30.9 °F 29.6 in Calm   13.0 mph 67 % 0 in open2300-1.11 W/m2
02:12 40.1 °F 30.4 °F 29.6 in NNE 2.6 mph 4.3 mph 68 % 0 in open2300-1.11 W/m2
03:12 39.7 °F 29.7 °F 29.6 in NW 4.0 mph 5.8 mph 67 % 0 in open2300-1.11 W/m2
04:12 40.6 °F 29.8 °F 29.5 in Calm     65 % 0 in open2300-1.11 W/m2
05:12 40.3 °F 28.6 °F 29.5 in NNE 1.8 mph 2.6 mph 63 % 0 in open2300-1.11 W/m2
06:12 40.6 °F 28.6 °F 29.5 in Calm   5.8 mph 62 % 0 in open2300-1.11 W/m2
07:12 41 °F 28.9 °F 29.5 in NNW 2.1 mph 3.5 mph 62 % 0 in open2300-1.11 W/m2
08:12 41.7 °F 28.9 °F 29.6 in Calm   3.5 mph 60 % 0 in open2300-1.11 W/m2
09:12 43.5 °F 29.7 °F 29.6 in Calm     58 % 0 in open2300-1.11 W/m2
10:12 46 °F 31.1 °F 29.6 in Calm   6.4 mph 56 % 0 in open2300-1.11 W/m2
11:12 49.8 °F 32.5 °F 29.6 in Calm   2.1 mph 51 % 0 in open2300-1.11 W/m2
12:12 52.9 °F 35.8 °F 29.6 in SE 3.2 mph 3.5 mph 52 % 0 in open2300-1.11 W/m2
13:12 53.4 °F 36.7 °F 29.6 in Calm   2.6 mph 53 % 0 in open2300-1.11 W/m2
14:12 53.2 °F 37 °F 29.6 in Calm   1.8 mph 54 % 0 in open2300-1.11 W/m2
15:12 54 °F 36.7 °F 29.5 in ESE 5.0 mph 5.0 mph 52 % 0 in open2300-1.11 W/m2
16:12 54.1 °F 36.3 °F 29.5 in Calm   1.4 mph 51 % 0 in open2300-1.11 W/m2
17:12 52 °F 33.4 °F 29.6 in WNW 9.3 mph 16.3 mph 49 % 0 in open2300-1.11 W/m2
18:12 49.6 °F 31.8 °F 29.6 in West 8.2 mph 16.6 mph 50 % 0 in open2300-1.11 W/m2
19:12 48.9 °F 31.5 °F 29.6 in NNW 2.1 mph 13.4 mph 51 % 0 in open2300-1.11 W/m2
20:12 48.2 °F 31.3 °F 29.6 in NNW 1.8 mph 6.1 mph 52 % 0 in open2300-1.11 W/m2
21:12 47.5 °F 30.2 °F 29.6 in WNW 23.0 mph 23.0 mph 51 % 0 in open2300-1.11 W/m2
22:12 46.9 °F 28.8 °F 29.6 in Calm   1.4 mph 49 % 0 in open2300-1.11 W/m2
23:12 45.5 °F 28.4 °F 29.6 in North 1.4 mph 10.1 mph 51 % 0 in open2300-1.11 W/m2
Observations météo à CASSIS
WU-History script by Weather Underground - 1 mb